Arrowsmith, Illinois
Current Conditions -  °F | °C
As of 6:56 AM on Wednesday 22 Oct 2014 (Local Time) from KBMI Reporting Station
Clear Clear  
Wind Chill: 33°   Ceiling: Unl
Heat Index: 37°   Visibility: 10mi
Dew Point: 36°   Wind: 5mph
Humidity: 97%   Direction: 30°NNE
Pressure: 30.33"   Gusts: NA
Location:  40.45°N, 88.63°W
Report Text: KBMI 221156Z 03004KT 10SM CLR 03/02 A3033 RMK AO2 53015 T00270022 10055 20016 SLP279
Loading
Personal Weather Stations






























Interactive Weather Map New forecast layout! Learn more

10-Day Weather Forecast

Advertisements
Track Severe Weather on mobile